createdAt,value
2019-02-22T00:01:25.032Z,44.27
2019-02-22T00:03:54.418Z,46.08
2019-02-22T00:06:23.728Z,49.10
2019-02-22T00:08:53.301Z,50.23
2019-02-22T00:11:22.665Z,50.20
2019-02-22T00:13:52.078Z,47.75
2019-02-22T00:16:21.441Z,45.88
2019-02-22T00:18:50.850Z,49.30
2019-02-22T00:21:20.262Z,45.60
2019-02-22T00:23:49.909Z,45.90
2019-02-22T00:26:19.319Z,53.13
2019-02-22T00:28:48.626Z,51.10
2019-02-22T00:31:18.222Z,50.05
2019-02-22T00:33:47.537Z,52.73
2019-02-22T00:36:17.716Z,51.35
2019-02-22T00:38:47.206Z,56.00
2019-02-22T00:41:16.578Z,53.28
2019-02-22T00:43:45.969Z,50.30
2019-02-22T00:46:15.601Z,47.75
2019-02-22T00:48:45.004Z,48.30
2019-02-22T00:51:14.388Z,47.40
2019-02-22T00:53:43.863Z,52.58
2019-02-22T00:56:13.246Z,50.10
2019-02-22T00:58:42.538Z,55.92
2019-02-22T01:01:11.995Z,53.58
2019-02-22T01:03:41.418Z,51.98
2019-02-22T01:06:10.845Z,57.35
2019-02-22T01:08:40.254Z,60.43
2019-02-22T01:11:09.632Z,62.13
2019-02-22T01:13:39.093Z,59.95
2019-02-22T01:16:09.032Z,61.53
2019-02-22T01:18:38.397Z,59.55
2019-02-22T01:21:07.693Z,59.77
2019-02-22T01:23:37.397Z,62.88
2019-02-22T01:26:06.838Z,66.28
2019-02-22T01:28:36.244Z,64.42
2019-02-22T01:31:05.909Z,67.55
2019-02-22T01:33:35.205Z,72.15
2019-02-22T01:36:04.589Z,68.25
2019-02-22T01:38:33.907Z,68.33
2019-02-22T01:41:03.214Z,75.72
2019-02-22T01:43:33.480Z,70.92
2019-02-22T01:46:03.063Z,79.03
2019-02-22T01:48:32.458Z,73.67
2019-02-22T01:51:01.778Z,76.65
2019-02-22T01:53:31.434Z,73.35
2019-02-22T01:56:01.145Z,74.00
2019-02-22T01:58:30.610Z,75.08
2019-02-22T02:01:00.153Z,71.25
2019-02-22T02:03:29.527Z,74.65
2019-02-22T02:05:58.947Z,75.57
2019-02-22T02:08:28.478Z,71.20
2019-02-22T02:10:57.794Z,73.28
2019-02-22T02:13:27.165Z,78.00
2019-02-22T02:15:57.046Z,81.00
2019-02-22T02:18:26.315Z,78.00
2019-02-22T02:20:55.670Z,84.32
2019-02-22T02:23:25.078Z,82.02
2019-02-22T02:25:54.436Z,75.72
2019-02-22T02:28:23.777Z,73.37
2019-02-22T02:30:53.207Z,74.90
2019-02-22T02:33:22.588Z,73.52
2019-02-22T02:35:52.281Z,70.60
2019-02-22T02:38:21.634Z,72.42
2019-02-22T02:40:50.943Z,71.28
2019-02-22T02:43:20.349Z,74.40
2019-02-22T02:45:49.725Z,71.30
2019-02-22T02:48:19.037Z,70.80
2019-02-22T02:50:48.388Z,62.70
2019-02-22T02:53:17.862Z,63.35
2019-02-22T02:55:47.178Z,65.52
2019-02-22T02:58:16.625Z,61.77
2019-02-22T03:00:46.104Z,64.95
2019-02-22T03:03:15.510Z,61.88
2019-02-22T03:06:02.930Z,63.73
2019-02-22T03:08:35.151Z,59.53
2019-02-22T03:11:04.533Z,58.23
2019-02-22T03:13:34.003Z,59.53
2019-02-22T03:16:03.404Z,57.40
2019-02-22T03:18:32.742Z,55.23
2019-02-22T03:21:02.118Z,55.45
2019-02-22T03:23:31.522Z,58.80
2019-02-22T03:26:00.862Z,53.85
2019-02-22T03:28:30.171Z,56.70
2019-02-22T03:30:59.664Z,55.63
2019-02-22T03:33:29.025Z,51.02
2019-02-22T03:35:58.531Z,48.10
2019-02-22T03:38:27.920Z,48.45
2019-02-22T03:40:57.264Z,43.58
2019-02-22T03:43:26.711Z,37.03
2019-02-22T03:45:56.128Z,33.58
2019-02-22T03:48:25.507Z,36.68
2019-02-22T03:50:55.123Z,40.00
2019-02-22T03:53:28.161Z,40.38
2019-02-22T03:56:01.719Z,40.20
2019-02-22T03:58:31.036Z,39.85
2019-02-22T04:01:00.398Z,38.58
2019-02-22T04:03:29.844Z,40.30
2019-02-22T04:05:59.233Z,41.98
2019-02-22T04:08:28.523Z,45.75
2019-02-22T04:10:58.547Z,43.95
2019-02-22T04:13:27.821Z,40.85
2019-02-22T04:15:57.421Z,42.03
2019-02-22T04:18:26.983Z,46.15
2019-02-22T04:20:56.416Z,43.20
2019-02-22T04:23:25.829Z,47.45
2019-02-22T04:25:55.398Z,44.75
2019-02-22T04:28:24.713Z,44.75
2019-02-22T04:30:54.088Z,50.23
2019-02-22T04:33:23.484Z,56.42
2019-02-22T04:35:52.806Z,51.35
2019-02-22T04:38:22.127Z,51.83
2019-02-22T04:40:51.529Z,48.58
2019-02-22T04:43:20.839Z,52.30
2019-02-22T04:45:50.233Z,50.43
2019-02-22T04:48:19.836Z,47.33
2019-02-22T04:50:49.810Z,47.15
2019-02-22T04:53:19.181Z,42.93
2019-02-22T04:55:48.934Z,44.60
2019-02-22T04:58:18.239Z,47.00
2019-02-22T05:00:47.655Z,47.33
2019-02-22T05:03:17.070Z,44.65
2019-02-22T05:05:46.377Z,45.80
2019-02-22T05:08:15.682Z,45.45
2019-02-22T05:10:45.018Z,43.68
2019-02-22T05:13:14.401Z,47.35
2019-02-22T05:15:43.834Z,46.33
2019-02-22T05:18:13.501Z,43.90
2019-02-22T05:20:43.083Z,47.90
2019-02-22T05:23:12.377Z,44.95
2019-02-22T05:25:41.813Z,43.78
2019-02-22T05:28:11.242Z,58.70
2019-02-22T05:30:41.608Z,55.23
2019-02-22T05:33:11.098Z,56.85
2019-02-22T05:35:40.473Z,59.85
2019-02-22T05:38:09.887Z,64.03
2019-02-22T05:40:39.250Z,52.83
2019-02-22T05:43:08.660Z,53.87
2019-02-22T05:45:38.065Z,60.05
2019-02-22T05:48:07.375Z,95.12
2019-02-22T05:50:36.677Z,67.42
2019-02-22T05:53:06.091Z,63.52
2019-02-22T05:55:35.492Z,63.30
2019-02-22T05:58:04.849Z,61.85
2019-02-22T06:00:34.245Z,60.88
2019-02-22T06:03:04.083Z,60.80
2019-02-22T06:05:33.479Z,59.25
2019-02-22T06:08:02.778Z,58.25
2019-02-22T06:10:32.711Z,59.27
2019-02-22T06:13:01.990Z,52.13
2019-02-22T06:15:31.632Z,50.92
2019-02-22T06:18:00.966Z,63.63
2019-02-22T06:20:30.413Z,63.60
2019-02-22T06:22:59.809Z,62.25
2019-02-22T06:25:29.308Z,63.65
2019-02-22T06:27:58.659Z,57.53
2019-02-22T06:30:28.009Z,54.05
2019-02-22T06:32:57.421Z,61.63
2019-02-22T06:35:26.801Z,60.28
2019-02-22T06:37:56.182Z,58.00
2019-02-22T06:40:25.589Z,62.45
2019-02-22T06:42:54.987Z,57.65
2019-02-22T06:45:24.352Z,58.58
2019-02-22T06:47:53.797Z,62.27
2019-02-22T06:50:33.295Z,54.45
2019-02-22T06:52:54.745Z,48.92
2019-02-22T06:55:24.230Z,50.98
2019-02-22T06:57:53.678Z,44.27
2019-02-22T07:00:23.033Z,44.50
2019-02-22T07:02:52.418Z,46.02
2019-02-22T07:05:21.968Z,50.63
2019-02-22T07:07:51.263Z,50.45
2019-02-22T07:10:20.583Z,51.77
2019-02-22T07:13:00.420Z,53.73
2019-02-22T07:15:29.826Z,46.95
2019-02-22T07:17:59.751Z,50.95
2019-02-22T07:20:29.472Z,50.52
2019-02-22T07:22:58.780Z,46.83
2019-02-22T07:25:28.151Z,46.28
2019-02-22T07:27:57.549Z,46.58
2019-02-22T07:30:26.937Z,47.33
2019-02-22T07:32:56.442Z,47.03
2019-02-22T07:35:25.849Z,47.03
2019-02-22T07:37:55.162Z,50.70
2019-02-22T07:40:24.541Z,48.92
2019-02-22T07:42:54.150Z,48.15
2019-02-22T07:45:23.542Z,46.60
2019-02-22T07:47:52.840Z,47.45
2019-02-22T07:50:22.230Z,55.65
2019-02-22T07:52:51.529Z,50.33
2019-02-22T07:55:20.906Z,50.95
2019-02-22T07:57:50.876Z,53.35
2019-02-22T08:00:20.194Z,56.68
2019-02-22T08:02:49.497Z,50.60
2019-02-22T08:05:18.966Z,56.28
2019-02-22T08:07:48.307Z,55.03
2019-02-22T08:10:17.758Z,59.35
2019-02-22T08:12:47.392Z,57.93
2019-02-22T08:15:16.742Z,57.60
2019-02-22T08:17:46.136Z,58.23
2019-02-22T08:20:15.594Z,58.15
2019-02-22T08:22:45.146Z,54.95
2019-02-22T08:25:14.529Z,58.78
2019-02-22T08:27:53.010Z,53.28
2019-02-22T08:30:15.047Z,48.95
2019-02-22T08:32:44.509Z,49.58
2019-02-22T08:35:13.830Z,43.60
2019-02-22T08:37:43.858Z,47.50
2019-02-22T08:40:13.196Z,48.33
2019-02-22T08:42:42.549Z,49.03
2019-02-22T08:45:11.971Z,52.95
2019-02-22T08:47:41.305Z,51.98
2019-02-22T08:50:10.744Z,54.63
2019-02-22T08:52:40.061Z,57.30
2019-02-22T08:55:09.453Z,56.45
2019-02-22T08:57:38.770Z,56.58
2019-02-22T09:00:09.749Z,59.40
2019-02-22T09:02:39.170Z,58.15
2019-02-22T09:05:09.256Z,58.15
2019-02-22T09:07:38.835Z,61.00
2019-02-22T09:10:08.779Z,62.43
2019-02-22T09:12:38.033Z,54.53
2019-02-22T09:15:07.606Z,55.23
2019-02-22T09:17:37.541Z,56.25
2019-02-22T09:20:07.451Z,65.17
2019-02-22T09:22:36.847Z,65.78
2019-02-22T09:25:06.610Z,59.00
2019-02-22T09:27:36.008Z,62.30
2019-02-22T09:30:05.713Z,64.25
2019-02-22T09:32:35.033Z,62.25
2019-02-22T09:35:04.730Z,61.95
2019-02-22T09:37:34.129Z,64.65
2019-02-22T09:40:03.516Z,60.83
2019-02-22T09:42:32.821Z,59.27
2019-02-22T09:45:02.147Z,57.93
2019-02-22T09:47:31.558Z,56.83
2019-02-22T09:50:00.887Z,59.95
2019-02-22T09:52:30.305Z,54.67
2019-02-22T09:54:59.589Z,53.05
2019-02-22T09:57:29.229Z,56.37
2019-02-22T09:59:58.559Z,56.35
2019-02-22T10:02:27.893Z,54.83
2019-02-22T10:04:57.306Z,53.17
2019-02-22T10:07:26.645Z,55.20
2019-02-22T10:09:55.956Z,54.13
2019-02-22T10:12:25.255Z,53.90
2019-02-22T10:14:54.598Z,54.13
2019-02-22T10:17:23.968Z,53.35
2019-02-22T10:19:53.529Z,53.33
2019-02-22T10:22:22.823Z,57.10
2019-02-22T10:24:52.135Z,53.75
2019-02-22T10:27:21.467Z,54.60
2019-02-22T10:29:50.833Z,51.53
2019-02-22T10:32:20.131Z,54.18
2019-02-22T10:34:49.461Z,53.35
2019-02-22T10:37:19.063Z,48.68
2019-02-22T10:39:48.356Z,51.65
2019-02-22T10:42:17.805Z,52.30
2019-02-22T10:44:47.239Z,51.28
2019-02-22T10:47:16.589Z,53.00
2019-02-22T10:49:46.161Z,49.15
2019-02-22T10:52:15.581Z,51.28
2019-02-22T10:54:44.971Z,50.08
2019-02-22T10:57:14.654Z,52.13
2019-02-22T10:59:43.993Z,48.25
2019-02-22T11:02:13.400Z,51.23
2019-02-22T11:04:42.782Z,51.75
2019-02-22T11:07:12.081Z,51.33
2019-02-22T11:09:41.489Z,49.83
2019-02-22T11:12:10.830Z,47.80
2019-02-22T11:14:40.226Z,49.18
2019-02-22T11:17:09.606Z,47.58
2019-02-22T11:19:39.019Z,44.53
2019-02-22T11:22:08.408Z,46.73
2019-02-22T11:24:37.942Z,47.78
2019-02-22T11:27:07.314Z,47.08
2019-02-22T11:29:36.650Z,45.17
2019-02-22T11:32:06.044Z,44.05
2019-02-22T11:34:35.447Z,46.00
2019-02-22T11:37:04.990Z,48.50
2019-02-22T11:39:34.307Z,44.60
2019-02-22T11:42:03.914Z,42.83
2019-02-22T11:44:40.306Z,42.35
2019-02-22T11:47:04.340Z,40.55
2019-02-22T11:49:33.759Z,39.58
2019-02-22T11:52:03.162Z,41.85
2019-02-22T11:54:32.472Z,44.55
2019-02-22T11:57:01.916Z,41.37
2019-02-22T11:59:31.253Z,45.73
2019-02-22T12:02:00.591Z,42.98
2019-02-22T12:04:30.237Z,42.70
2019-02-22T12:06:59.646Z,42.53
2019-02-22T12:09:29.013Z,42.90
2019-02-22T12:11:58.459Z,43.33
2019-02-22T12:14:27.782Z,42.80
2019-02-22T12:16:57.196Z,42.35
2019-02-22T12:19:26.725Z,44.03
2019-02-22T12:21:56.120Z,41.60
2019-02-22T12:24:25.502Z,41.68
2019-02-22T12:27:00.688Z,42.90
2019-02-22T12:29:30.001Z,44.03
2019-02-22T12:31:59.320Z,42.48
2019-02-22T12:34:28.665Z,41.40
2019-02-22T12:36:58.528Z,42.03
2019-02-22T12:39:27.928Z,44.15
2019-02-22T12:41:57.515Z,41.23
2019-02-22T12:44:26.946Z,43.10
2019-02-22T12:46:56.245Z,46.85
2019-02-22T12:49:25.815Z,45.75
2019-02-22T12:51:55.189Z,45.52
2019-02-22T12:54:24.482Z,45.83
2019-02-22T12:56:57.479Z,44.95
2019-02-22T12:59:24.903Z,44.38
2019-02-22T13:01:54.279Z,44.83
2019-02-22T13:04:23.753Z,42.60
2019-02-22T13:06:53.142Z,41.13
2019-02-22T13:09:22.539Z,42.08
2019-02-22T13:11:52.005Z,38.60
2019-02-22T13:14:21.326Z,38.23
2019-02-22T13:16:50.862Z,39.50
2019-02-22T13:19:20.148Z,40.12
2019-02-22T13:21:49.543Z,41.20
2019-02-22T13:24:18.913Z,40.20
2019-02-22T13:26:48.355Z,41.25
2019-02-22T13:29:17.790Z,41.33
2019-02-22T13:31:47.093Z,40.55
2019-02-22T13:34:16.454Z,43.60
2019-02-22T13:36:45.825Z,43.35
2019-02-22T13:39:15.208Z,39.45
2019-02-22T13:41:44.663Z,44.13
2019-02-22T13:44:14.106Z,48.20
2019-02-22T13:46:43.423Z,46.58
2019-02-22T13:49:12.895Z,44.33
2019-02-22T13:51:42.198Z,40.43
2019-02-22T13:54:11.877Z,39.95
2019-02-22T13:56:42.025Z,45.30
2019-02-22T13:59:11.427Z,44.80
2019-02-22T14:01:40.805Z,42.62
2019-02-22T14:04:10.741Z,40.52
2019-02-22T14:06:40.171Z,38.38
2019-02-22T14:09:09.575Z,41.23
2019-02-22T14:11:38.892Z,42.40
2019-02-22T14:14:08.264Z,42.38
2019-02-22T14:16:37.647Z,35.38
2019-02-22T14:19:07.256Z,35.10
2019-02-22T14:21:36.571Z,39.85
2019-02-22T14:24:06.014Z,36.23
2019-02-22T14:26:35.381Z,36.45
2019-02-22T14:29:04.681Z,36.85
2019-02-22T14:31:34.027Z,36.63
2019-02-22T14:34:03.397Z,36.13
2019-02-22T14:36:33.111Z,48.10
2019-02-22T14:39:02.614Z,52.45
2019-02-22T14:41:32.274Z,52.17
2019-02-22T14:44:01.564Z,49.88
2019-02-22T14:46:30.951Z,50.70
2019-02-22T14:49:00.421Z,33.35
2019-02-22T14:51:29.742Z,33.65
2019-02-22T14:53:59.129Z,29.87
2019-02-22T14:56:28.545Z,29.75
2019-02-22T14:58:57.874Z,31.33
2019-02-22T15:01:27.274Z,32.78
2019-02-22T15:03:56.644Z,31.87
2019-02-22T15:06:25.993Z,32.25
2019-02-22T15:08:55.353Z,34.58
2019-02-22T15:11:25.091Z,37.88
2019-02-22T15:13:54.386Z,34.75
2019-02-22T15:16:45.766Z,35.08
2019-02-22T15:19:15.563Z,38.13
2019-02-22T15:21:44.861Z,37.17
2019-02-22T15:24:14.450Z,37.48
2019-02-22T15:26:43.808Z,32.55
2019-02-22T15:29:13.255Z,33.45
2019-02-22T15:31:42.985Z,33.28
2019-02-22T15:34:12.315Z,34.85
2019-02-22T15:36:41.598Z,33.50
2019-02-22T15:39:11.030Z,32.45
2019-02-22T15:41:40.283Z,33.08
2019-02-22T15:44:09.582Z,32.90
2019-02-22T15:46:38.994Z,33.50
2019-02-22T15:49:08.310Z,32.85
2019-02-22T15:51:37.638Z,32.30
2019-02-22T15:54:07.180Z,34.58
2019-02-22T15:56:36.577Z,33.75
2019-02-22T15:59:05.893Z,34.18
2019-02-22T16:01:35.497Z,37.15
2019-02-22T16:04:24.190Z,36.08
2019-02-22T16:06:53.585Z,34.33
2019-02-22T16:09:22.897Z,37.00
2019-02-22T16:11:52.459Z,37.58
2019-02-22T16:14:22.100Z,35.17
2019-02-22T16:16:51.390Z,35.78
2019-02-22T16:19:20.757Z,36.08
2019-02-22T16:21:50.116Z,35.85
2019-02-22T16:24:19.489Z,34.98
2019-02-22T16:26:50.451Z,35.60
2019-02-22T16:29:20.491Z,34.58
2019-02-22T16:31:51.069Z,37.70
2019-02-22T16:34:20.386Z,37.48
2019-02-22T16:36:49.726Z,38.15
2019-02-22T16:39:19.050Z,37.35
2019-02-22T16:41:48.370Z,39.03
2019-02-22T16:44:18.149Z,39.35
2019-02-22T16:46:47.513Z,42.55
2019-02-22T16:49:16.877Z,40.52
2019-02-22T16:51:46.224Z,43.95
2019-02-22T16:54:15.520Z,44.08
2019-02-22T16:56:45.025Z,46.92
2019-02-22T16:59:15.342Z,48.85
2019-02-22T17:01:45.035Z,51.42
2019-02-22T17:07:05.093Z,55.58
2019-02-22T17:09:34.493Z,62.65
2019-02-22T17:12:06.760Z,64.53
2019-02-22T17:14:35.001Z,61.45
2019-02-22T17:17:04.417Z,62.75
2019-02-22T17:19:33.975Z,60.92
2019-02-22T17:22:03.514Z,60.67
2019-02-22T17:24:32.887Z,62.85
2019-02-22T17:27:02.177Z,60.45
2019-02-22T17:29:31.738Z,58.73
2019-02-22T17:32:01.386Z,58.73
2019-02-22T17:34:30.790Z,59.60
2019-02-22T17:37:00.334Z,59.45
2019-02-22T17:39:29.652Z,59.08
2019-02-22T17:41:59.118Z,57.53
2019-02-22T17:44:28.443Z,57.20
2019-02-22T17:46:58.168Z,60.90
2019-02-22T17:49:27.588Z,60.33
2019-02-22T17:51:57.053Z,59.75
2019-02-22T17:54:28.960Z,55.60
2019-02-22T17:56:58.561Z,58.63
2019-02-22T17:59:28.125Z,56.50
2019-02-22T18:01:57.520Z,53.83
2019-02-22T18:04:26.849Z,55.43
2019-02-22T18:06:56.631Z,54.05
2019-02-22T18:09:25.969Z,53.05
2019-02-22T18:11:55.280Z,50.92
2019-02-22T18:14:24.896Z,51.08
2019-02-22T18:16:54.278Z,51.55
2019-02-22T18:19:23.841Z,54.33
2019-02-22T18:21:53.481Z,50.52
2019-02-22T18:24:22.959Z,50.20
2019-02-22T18:26:52.315Z,43.50
2019-02-22T18:29:21.644Z,45.48
2019-02-22T18:31:51.095Z,43.45
2019-02-22T18:34:20.481Z,42.83
2019-02-22T18:36:49.934Z,43.85
2019-02-22T18:39:19.345Z,41.10
2019-02-22T18:41:48.672Z,42.73
2019-02-22T18:44:18.298Z,41.83
2019-02-22T18:46:48.107Z,40.98
2019-02-22T18:49:17.542Z,43.45
2019-02-22T18:51:46.901Z,41.92
2019-02-22T18:54:16.360Z,40.10
2019-02-22T18:56:45.705Z,42.50
2019-02-22T18:59:15.303Z,44.50
2019-02-22T19:01:44.677Z,44.98
2019-02-22T19:04:13.961Z,42.67
2019-02-22T19:06:43.553Z,43.20
2019-02-22T19:09:13.193Z,42.25
2019-02-22T19:11:42.541Z,41.77
2019-02-22T19:14:12.121Z,43.38
2019-02-22T19:16:41.532Z,45.63
2019-02-22T19:19:10.898Z,45.67
2019-02-22T19:21:40.408Z,49.30
2019-02-22T19:24:09.884Z,49.53
2019-02-22T19:26:39.301Z,49.83
2019-02-22T19:29:08.870Z,50.23
2019-02-22T19:31:38.194Z,48.17
2019-02-22T19:34:07.570Z,47.15
2019-02-22T19:36:37.194Z,48.38
2019-02-22T19:39:07.209Z,48.63
2019-02-22T19:41:36.512Z,49.15
2019-02-22T19:44:06.050Z,50.55
2019-02-22T19:46:35.501Z,47.65
2019-02-22T19:49:04.957Z,47.15
2019-02-22T19:51:34.486Z,48.87
2019-02-22T19:54:03.789Z,46.77
2019-02-22T19:56:33.183Z,50.03
2019-02-22T19:59:02.534Z,46.15
2019-02-22T20:01:31.835Z,48.60
2019-02-22T20:04:01.125Z,46.90
2019-02-22T20:06:30.462Z,45.98
2019-02-22T20:08:59.847Z,45.17
2019-02-22T20:11:29.251Z,44.65
2019-02-22T20:13:58.681Z,43.00
2019-02-22T20:16:27.976Z,43.52
2019-02-22T20:18:57.268Z,43.95
2019-02-22T20:21:26.893Z,47.03
2019-02-22T20:23:56.275Z,46.30
2019-02-22T20:26:44.687Z,45.20
2019-02-22T20:29:14.702Z,46.48
2019-02-22T20:31:44.046Z,43.60
2019-02-22T20:34:13.456Z,47.73
2019-02-22T20:36:44.141Z,46.30
2019-02-22T20:39:13.629Z,46.08
2019-02-22T20:41:43.379Z,43.48
2019-02-22T20:44:12.689Z,41.33
2019-02-22T20:46:41.981Z,41.50
2019-02-22T20:49:11.505Z,40.43
2019-02-22T20:51:40.892Z,43.30
2019-02-22T20:54:10.233Z,41.25
2019-02-22T20:56:39.595Z,41.83
2019-02-22T20:59:08.917Z,40.17
2019-02-22T21:01:38.209Z,39.05
2019-02-22T21:04:07.581Z,38.13
2019-02-22T21:06:36.959Z,37.33
2019-02-22T21:09:07.089Z,39.18
2019-02-22T21:11:36.403Z,40.98
2019-02-22T21:14:05.753Z,41.65
2019-02-22T21:16:35.117Z,39.40
2019-02-22T21:19:04.445Z,40.52
2019-02-22T21:21:33.831Z,38.20
2019-02-22T21:24:03.125Z,40.00
2019-02-22T21:26:32.432Z,40.92
2019-02-22T21:29:01.766Z,40.78
2019-02-22T21:31:31.233Z,39.42
2019-02-22T21:34:00.771Z,37.20
2019-02-22T21:36:30.064Z,39.78
2019-02-22T21:38:59.384Z,39.63
2019-02-22T21:41:28.706Z,38.10
2019-02-22T21:43:58.013Z,39.05
2019-02-22T21:46:28.882Z,39.58
2019-02-22T21:48:58.980Z,37.17
2019-02-22T21:51:28.338Z,39.45
2019-02-22T21:53:57.701Z,34.10
2019-02-22T21:56:27.300Z,39.42
2019-02-22T21:58:56.609Z,35.80
2019-02-22T22:01:26.002Z,38.88
2019-02-22T22:03:55.318Z,39.45
2019-02-22T22:06:24.720Z,39.20
2019-02-22T22:08:55.540Z,37.38
2019-02-22T22:11:25.351Z,39.63
2019-02-22T22:13:54.718Z,40.38
2019-02-22T22:16:24.012Z,42.38
2019-02-22T22:18:53.415Z,38.15
2019-02-22T22:21:22.801Z,42.13
2019-02-22T22:23:52.181Z,38.78
2019-02-22T22:26:21.592Z,36.75
2019-02-22T22:28:51.327Z,38.00
2019-02-22T22:31:20.760Z,40.40
2019-02-22T22:33:50.339Z,38.17
2019-02-22T22:36:19.715Z,41.95
2019-02-22T22:38:49.082Z,39.45
2019-02-22T22:41:18.450Z,38.48
2019-02-22T22:43:47.849Z,42.98
2019-02-22T22:46:17.213Z,39.98
2019-02-22T22:48:50.535Z,44.15
2019-02-22T22:51:17.585Z,45.40
2019-02-22T22:53:46.971Z,40.92
2019-02-22T22:56:16.333Z,49.53
2019-02-22T22:58:46.004Z,47.58
2019-02-22T23:01:20.443Z,46.83
2019-02-22T23:03:49.865Z,47.38
2019-02-22T23:06:19.263Z,47.62
2019-02-22T23:08:48.876Z,47.80
2019-02-22T23:11:18.321Z,45.48
2019-02-22T23:13:47.744Z,47.88
2019-02-22T23:16:17.061Z,48.33
2019-02-22T23:18:46.431Z,49.10
2019-02-22T23:21:15.763Z,50.85
2019-02-22T23:23:45.687Z,49.53
2019-02-22T23:26:15.114Z,49.75
2019-02-22T23:28:44.570Z,46.60
2019-02-22T23:31:13.936Z,49.65
2019-02-22T23:33:43.374Z,51.05
2019-02-22T23:36:12.796Z,50.63
2019-02-22T23:38:42.135Z,51.55
2019-02-22T23:41:11.521Z,48.55
2019-02-22T23:43:40.903Z,47.88
2019-02-22T23:46:10.477Z,45.95
2019-02-22T23:48:39.926Z,44.77
2019-02-22T23:51:09.320Z,49.98
2019-02-22T23:53:38.673Z,49.18
2019-02-22T23:56:08.089Z,50.95
2019-02-22T23:58:37.385Z,52.45
